Time;durP1;ratioP1;P1;durP2;ratioP2;P2;SDS_P1;SDS_P2;PMS_P1;PMS_P2;Temp;Humidity;BMP_temperature;BMP_pressure;BME280_temperature;BME280_humidity;BME280_pressure;Samples;Min_cycle;Max_cycle;Signal;HPM_P1;HPM_P2
2022/06/08 00:00:12;;;;;;;29.40;19.08;;;;;;;14.28;87.68;100985.94;4986885;28;20065;-72
2022/06/08 00:02:39;;;;;;;38.65;21.08;;;;;;;14.30;88.84;100985.81;4970539;28;20197;-72
2022/06/08 00:05:05;;;;;;;37.60;21.88;;;;;;;14.28;89.24;100985.09;4992108;28;20125;-73
2022/06/08 00:07:31;;;;;;;35.63;20.75;;;;;;;14.27;88.40;100975.13;4988240;28;20170;-72
2022/06/08 00:09:56;;;;;;;31.75;19.15;;;;;;;14.26;87.20;100978.84;4987924;28;20042;-72
2022/06/08 00:12:22;;;;;;;33.78;20.05;;;;;;;14.24;88.42;100976.25;4970491;28;20100;-73
2022/06/08 00:14:47;;;;;;;32.88;19.52;;;;;;;14.22;87.69;100969.16;4986923;28;20035;-71
2022/06/08 00:17:13;;;;;;;31.63;19.90;;;;;;;14.16;87.22;100961.50;4987577;28;20064;-73
2022/06/08 00:19:38;;;;;;;32.28;19.60;;;;;;;14.12;87.45;100963.63;4986779;28;20125;-73
2022/06/08 00:22:05;;;;;;;35.67;22.73;;;;;;;14.10;89.91;100964.75;4987412;28;20100;-72
2022/06/08 00:24:31;;;;;;;34.92;21.02;;;;;;;14.04;88.96;100956.09;4953391;28;20197;-72
2022/06/08 00:26:57;;;;;;;37.00;20.27;;;;;;;14.01;87.92;100961.81;4999522;28;20033;-71
2022/06/08 00:29:22;;;;;;;34.05;19.27;;;;;;;13.99;88.74;100962.94;5006598;28;20128;-73
2022/06/08 00:31:50;;;;;;;31.80;18.50;;;;;;;13.94;88.31;100956.97;4986112;28;20505;-72
2022/06/08 00:34:16;;;;;;;36.30;21.17;;;;;;;13.95;88.28;100951.41;4977854;28;20041;-72
2022/06/08 00:36:41;;;;;;;30.08;19.52;;;;;;;13.96;88.68;100950.38;4970079;28;20038;-72
2022/06/08 00:39:07;;;;;;;39.83;21.67;;;;;;;13.93;88.79;100942.44;4970036;28;20385;-72
2022/06/08 00:41:41;;;;;;;37.25;20.90;;;;;;;13.90;88.36;100947.31;4969701;28;20084;-73
2022/06/08 00:44:13;;;;;;;36.03;20.83;;;;;;;13.88;88.31;100943.81;4969036;28;20038;-72
2022/06/08 00:46:38;;;;;;;37.10;22.40;;;;;;;13.85;89.40;100941.34;4985132;28;20034;-72
2022/06/08 00:49:45;;;;;;;34.22;20.63;;;;;;;13.84;87.64;100942.34;4973741;28;20121;-71
2022/06/08 00:52:12;;;;;;;32.25;20.52;;;;;;;13.82;88.26;100944.34;4984874;28;20050;-73
2022/06/08 00:54:41;;;;;;;38.33;22.52;;;;;;;13.71;88.95;100934.34;4988045;28;20031;-73
2022/06/08 00:57:15;;;;;;;33.83;20.05;;;;;;;13.71;87.85;100943.41;4986990;28;20142;-73
2022/06/08 00:59:48;;;;;;;34.17;19.90;;;;;;;13.66;87.74;100929.25;4968968;28;20089;-73
2022/06/08 01:02:15;;;;;;;32.45;20.27;;;;;;;13.62;87.81;100926.91;4969679;28;20092;-73
2022/06/08 01:04:41;;;;;;;29.33;20.13;;;;;;;13.58;88.56;100920.81;4958718;28;20120;-74
2022/06/08 01:07:07;;;;;;;33.40;20.95;;;;;;;13.53;88.37;100923.06;4969302;28;20038;-73
2022/06/08 01:09:39;;;;;;;32.15;20.15;;;;;;;13.49;88.33;100925.19;4969702;28;20372;-74
2022/06/08 01:12:16;;;;;;;28.52;18.58;;;;;;;13.43;88.34;100920.25;4969733;28;20430;-74
2022/06/08 01:14:48;;;;;;;33.22;20.40;;;;;;;13.42;87.68;100917.63;4984478;28;20458;-73
2022/06/08 01:17:17;;;;;;;29.73;18.75;;;;;;;13.38;87.14;100905.19;4987126;28;20486;-73
2022/06/08 01:19:49;;;;;;;31.53;20.13;;;;;;;13.33;87.84;100902.84;4969178;28;20042;-73
2022/06/08 01:22:19;;;;;;;33.90;21.05;;;;;;;13.32;88.80;100903.00;4969397;28;20096;-73
2022/06/08 01:24:51;;;;;;;33.28;19.00;;;;;;;13.31;88.24;100893.06;4966813;28;20030;-72
2022/06/08 01:27:26;;;;;;;34.45;20.15;;;;;;;13.28;89.17;100896.91;4985323;28;20030;-73
2022/06/08 01:30:14;;;;;;;34.55;21.83;;;;;;;13.26;88.09;100885.25;4986073;28;20038;-72
2022/06/08 01:33:22;;;;;;;38.55;22.45;;;;;;;13.25;89.63;100886.25;4987126;28;20513;-73
2022/06/08 01:36:12;;;;;;;34.92;21.02;;;;;;;13.24;88.86;100881.75;4983638;28;20133;-73
2022/06/08 01:39:00;;;;;;;28.67;19.15;;;;;;;13.23;88.45;100877.28;4969717;28;20109;-73
2022/06/08 01:41:59;;;;;;;36.03;22.20;;;;;;;13.19;89.17;100868.44;4969640;28;20062;-72
2022/06/08 01:44:31;;;;;;;32.28;19.45;;;;;;;13.17;90.00;100869.59;4952561;28;20081;-73
2022/06/08 01:47:35;;;;;;;37.80;22.00;;;;;;;13.16;89.03;100871.44;4993241;28;20556;-73
2022/06/08 01:50:20;;;;;;;35.42;20.48;;;;;;;13.06;89.50;100854.09;4934999;28;20063;-73
2022/06/08 01:52:54;;;;;;;33.60;20.65;;;;;;;13.11;89.67;100867.38;5001538;28;20045;-73
2022/06/08 01:55:31;;;;;;;34.03;20.40;;;;;;;13.09;89.75;100859.28;4992478;28;20144;-74
2022/06/08 01:58:12;;;;;;;35.45;21.58;;;;;;;13.10;89.78;100857.41;4991614;28;20044;-72
2022/06/08 02:00:44;;;;;;;34.38;20.77;;;;;;;13.10;91.55;100851.94;4990094;28;20072;-73
2022/06/08 02:03:40;;;;;;;39.50;21.58;;;;;;;13.12;91.33;100844.50;4987792;28;20042;-71
2022/06/08 02:06:23;;;;;;;42.35;22.85;;;;;;;13.10;92.14;100847.34;4989646;28;20030;-73
2022/06/08 02:08:56;;;;;;;38.63;21.98;;;;;;;13.10;90.96;100843.75;4972445;28;20109;-72
2022/06/08 02:11:41;;;;;;;32.90;19.45;;;;;;;13.11;90.52;100840.91;4972304;28;20066;-74
2022/06/08 02:14:16;;;;;;;35.95;21.77;;;;;;;13.09;91.65;100817.44;4989648;28;20034;-73
2022/06/08 02:16:55;;;;;;;37.42;20.55;;;;;;;13.05;91.51;100822.28;4975851;28;20042;-74
2022/06/08 02:19:33;;;;;;;31.98;18.52;;;;;;;12.99;90.67;100820.94;4971859;28;20188;-74
2022/06/08 02:22:22;;;;;;;36.33;20.20;;;;;;;13.01;90.08;100823.56;4972420;28;20037;-73
2022/06/08 02:25:04;;;;;;;31.10;18.75;;;;;;;12.99;89.83;100806.44;4972441;28;20513;-74
2022/06/08 02:27:44;;;;;;;35.28;20.27;;;;;;;12.97;90.50;100811.16;4956474;28;20034;-72
2022/06/08 02:30:14;;;;;;;30.85;19.17;;;;;;;12.93;90.24;100799.63;4970660;28;20037;-73
2022/06/08 02:35:54;;;;;;;30.48;17.90;;;;;;;12.90;89.98;100802.59;4966803;28;20107;-73
2022/06/08 02:38:24;;;;;;;32.05;19.27;;;;;;;12.87;91.46;100794.66;4972525;28;20474;-73
2022/06/08 02:40:56;;;;;;;31.75;18.00;;;;;;;12.85;90.60;100798.50;4972123;28;20198;-73
2022/06/08 02:43:51;;;;;;;36.15;20.40;;;;;;;12.84;91.74;100791.31;4971600;28;20034;-72
2022/06/08 02:46:46;;;;;;;29.40;17.52;;;;;;;12.80;90.76;100784.38;4971404;28;20040;-72
2022/06/08 02:49:13;;;;;;;31.08;18.70;;;;;;;12.75;90.93;100782.03;4977868;28;20425;-74
2022/06/08 02:51:46;;;;;;;28.30;16.52;;;;;;;12.71;90.95;100781.41;4989165;28;20104;-74
2022/06/08 02:54:19;;;;;;;29.55;17.77;;;;;;;12.68;90.43;100781.69;4990112;28;20554;-73
2022/06/08 02:56:58;;;;;;;33.67;17.45;;;;;;;12.70;91.12;100785.13;4972795;28;20052;-74
2022/06/08 02:59:33;;;;;;;32.20;17.10;;;;;;;12.66;90.73;100775.47;4971916;28;20058;-73
2022/06/08 03:02:06;;;;;;;32.38;17.75;;;;;;;12.65;90.84;100778.31;4986181;28;20034;-73
2022/06/08 03:04:53;;;;;;;30.90;17.67;;;;;;;12.65;90.85;100771.00;4975625;28;20453;-73
2022/06/08 03:07:25;;;;;;;29.25;16.42;;;;;;;12.63;90.37;100772.09;4971507;28;20037;-73
2022/06/08 03:09:52;;;;;;;30.27;16.45;;;;;;;12.61;92.12;100761.31;4987740;28;20042;-73
2022/06/08 03:12:34;;;;;;;25.27;15.55;;;;;;;12.64;91.01;100760.22;4971123;28;20033;-72
2022/06/08 03:15:02;;;;;;;25.92;14.15;;;;;;;12.62;90.12;100754.88;4970350;28;20056;-72
2022/06/08 03:17:32;;;;;;;24.17;15.15;;;;;;;12.60;91.62;100762.31;4970968;28;20030;-72
2022/06/08 03:19:59;;;;;;;27.77;14.80;;;;;;;12.59;91.42;100759.69;4972248;28;20039;-73
2022/06/08 03:22:25;;;;;;;22.90;14.38;;;;;;;12.61;90.87;100765.91;4987804;28;20041;-73
2022/06/08 03:24:52;;;;;;;27.45;14.95;;;;;;;12.62;91.49;100759.47;4985487;28;20073;-74
2022/06/08 03:27:19;;;;;;;26.95;15.02;;;;;;;12.64;93.10;100768.41;4971232;28;20030;-73
2022/06/08 03:29:49;;;;;;;22.77;14.38;;;;;;;12.63;92.74;100763.91;4970183;28;20038;-73
2022/06/08 03:32:16;;;;;;;23.27;13.23;;;;;;;12.63;92.36;100769.38;4988863;28;20125;-73
2022/06/08 03:34:41;;;;;;;27.40;14.77;;;;;;;12.67;93.19;100770.88;4976064;28;20102;-74
2022/06/08 03:37:09;;;;;;;19.73;12.93;;;;;;;12.69;92.15;100766.16;4970303;28;20145;-73
2022/06/08 03:39:38;;;;;;;20.25;12.32;;;;;;;12.72;91.31;100766.75;4970587;28;20125;-73
2022/06/08 03:42:04;;;;;;;21.75;13.20;;;;;;;12.75;92.36;100763.78;4971072;28;20046;-74
2022/06/08 03:44:29;;;;;;;22.33;12.65;;;;;;;12.77;92.37;100763.63;4987536;28;20042;-74
2022/06/08 03:47:01;;;;;;;18.95;10.63;;;;;;;12.84;90.92;100773.06;4954363;28;20397;-73
2022/06/08 03:49:28;;;;;;;15.07;10.75;;;;;;;12.92;91.32;100772.44;4969612;28;20120;-73
2022/06/08 03:51:56;;;;;;;18.02;11.02;;;;;;;12.98;90.95;100778.25;4970276;28;20042;-74
2022/06/08 03:54:26;;;;;;;19.42;11.85;;;;;;;13.07;91.59;100767.56;4970931;28;20065;-73
2022/06/08 03:56:56;;;;;;;18.25;11.68;;;;;;;13.13;91.56;100778.81;4990288;28;20034;-73
2022/06/08 03:59:23;;;;;;;18.40;10.40;;;;;;;13.20;91.93;100780.06;4989209;28;20057;-73
2022/06/08 04:01:51;;;;;;;24.63;11.52;;;;;;;13.23;92.70;100768.88;4987683;28;20128;-73
2022/06/08 04:04:17;;;;;;;20.35;11.45;;;;;;;13.32;92.14;100769.09;4978415;28;20082;-72
2022/06/08 04:06:43;;;;;;;13.45;9.50;;;;;;;13.34;91.88;100759.78;4978383;28;20030;-73
2022/06/08 04:09:10;;;;;;;16.55;9.90;;;;;;;13.38;92.43;100766.72;4987222;28;20029;-73
2022/06/08 04:11:36;;;;;;;18.27;9.55;;;;;;;13.41;92.63;100754.66;4970309;28;20037;-73
2022/06/08 04:14:02;;;;;;;15.10;10.32;;;;;;;13.46;92.36;100760.59;4969709;28;20030;-73
2022/06/08 04:16:29;;;;;;;18.77;10.50;;;;;;;13.48;92.59;100755.88;4953146;28;20038;-73
2022/06/08 04:18:57;;;;;;;14.88;9.43;;;;;;;13.50;92.83;100757.47;4969524;28;20461;-73
2022/06/08 04:21:27;;;;;;;15.23;9.68;;;;;;;13.52;92.44;100747.28;4970164;28;20069;-73
2022/06/08 04:24:00;;;;;;;17.38;10.65;;;;;;;13.55;92.67;100743.41;4970290;28;20038;-73
2022/06/08 04:26:28;;;;;;;23.27;10.73;;;;;;;13.57;92.53;100740.50;4970149;28;20018;-73
2022/06/08 04:29:00;;;;;;;14.38;9.73;;;;;;;13.64;92.01;100748.06;4969570;28;20121;-72
2022/06/08 04:31:27;;;;;;;16.80;10.10;;;;;;;13.68;92.68;100746.81;4969090;28;20038;-73
2022/06/08 04:33:59;;;;;;;13.27;9.88;;;;;;;13.73;92.48;100749.13;4954234;28;20049;-73
2022/06/08 04:36:31;;;;;;;13.82;9.48;;;;;;;13.78;91.94;100749.59;4969869;28;20030;-74
2022/06/08 04:38:59;;;;;;;15.98;8.93;;;;;;;13.79;91.59;100737.66;4970091;28;20095;-73
2022/06/08 04:41:26;;;;;;;12.55;8.68;;;;;;;13.87;91.71;100747.94;4972031;28;20045;-73
2022/06/08 04:43:53;;;;;;;13.38;8.50;;;;;;;13.93;91.78;100744.63;4971691;28;20426;-73
2022/06/08 04:46:20;;;;;;;12.55;8.18;;;;;;;13.98;92.03;100737.75;4988991;28;20054;-72
2022/06/08 04:48:49;;;;;;;13.57;7.95;;;;;;;14.05;90.96;100727.16;4983115;28;20494;-73
2022/06/08 04:51:16;;;;;;;12.52;7.88;;;;;;;14.15;91.51;100732.66;4983783;28;20466;-73
2022/06/08 04:53:44;;;;;;;12.38;8.23;;;;;;;14.26;91.51;100724.34;4970464;28;20405;-74
2022/06/08 04:56:10;;;;;;;12.02;8.13;;;;;;;14.40;91.66;100726.72;4969894;28;20035;-73
2022/06/08 04:58:38;;;;;;;12.70;7.65;;;;;;;14.48;91.21;100715.97;4969191;28;20144;-73
2022/06/08 05:01:04;;;;;;;11.73;7.65;;;;;;;14.58;90.20;100718.72;4969335;28;20058;-73
2022/06/08 05:03:31;;;;;;;9.13;6.90;;;;;;;14.68;90.59;100716.00;4980766;28;20765;-73
2022/06/08 05:05:59;;;;;;;9.13;6.72;;;;;;;14.73;89.72;100720.06;4977201;28;20026;-73
2022/06/08 05:08:29;;;;;;;10.88;7.28;;;;;;;14.76;89.79;100716.19;4987712;28;20112;-73
2022/06/08 05:10:57;;;;;;;12.88;6.82;;;;;;;14.80;90.02;100720.38;5005389;28;20470;-73
2022/06/08 05:13:24;;;;;;;9.77;6.93;;;;;;;14.86;90.44;100718.94;4988740;28;20038;-74
2022/06/08 05:15:58;;;;;;;12.95;6.00;;;;;;;14.91;89.57;100709.28;4984118;28;20039;-73
2022/06/08 05:18:25;;;;;;;12.20;7.45;;;;;;;14.92;90.21;100710.13;4986119;28;20045;-74
2022/06/08 05:20:54;;;;;;;9.30;6.70;;;;;;;14.95;90.10;100702.50;4969249;28;20026;-74
2022/06/08 05:23:32;;;;;;;8.32;6.50;;;;;;;15.01;90.16;100701.06;4970980;28;20096;-74
2022/06/08 05:26:00;;;;;;;10.13;6.40;;;;;;;15.05;89.22;100700.63;4989115;28;20034;-73
2022/06/08 05:28:26;;;;;;;12.07;6.90;;;;;;;15.03;89.92;100691.72;4991958;28;20030;-73
2022/06/08 05:30:56;;;;;;;8.38;6.32;;;;;;;15.08;89.74;100679.47;4987712;28;20121;-74
2022/06/08 05:33:26;;;;;;;6.30;5.50;;;;;;;15.14;89.33;100693.44;4982426;28;20034;-73
2022/06/08 05:35:54;;;;;;;8.45;6.15;;;;;;;15.20;89.39;100683.75;4972927;28;20038;-73
2022/06/08 05:38:20;;;;;;;8.18;5.97;;;;;;;15.24;89.32;100675.09;4992790;28;20438;-74
2022/06/08 05:40:46;;;;;;;8.63;5.93;;;;;;;15.28;89.54;100668.31;4992806;28;20037;-74
2022/06/08 05:43:14;;;;;;;9.65;5.20;;;;;;;15.37;88.16;100677.53;4981766;28;20567;-74
2022/06/08 05:45:45;;;;;;;10.10;5.60;;;;;;;15.40;88.43;100669.03;4980580;28;20400;-74
2022/06/08 05:48:11;;;;;;;7.68;5.15;;;;;;;15.48;88.13;100668.28;4986222;28;20426;-73
2022/06/08 05:50:39;;;;;;;8.60;5.55;;;;;;;15.55;88.24;100674.94;4983618;28;20038;-74
2022/06/08 05:53:09;;;;;;;9.57;5.30;;;;;;;15.58;87.55;100663.69;4956269;28;20651;-74
2022/06/08 05:55:34;;;;;;;7.70;5.95;;;;;;;15.67;88.26;100664.69;4972408;28;20145;-74
2022/06/08 05:58:00;;;;;;;7.05;5.63;;;;;;;15.77;87.98;100663.66;4971945;28;20383;-72
2022/06/08 06:00:32;;;;;;;10.38;5.63;;;;;;;15.82;87.54;100652.22;4970809;28;20038;-74
2022/06/08 06:02:59;;;;;;;8.15;5.53;;;;;;;15.87;86.83;100649.03;4953231;28;20080;-74
2022/06/08 06:05:28;;;;;;;9.40;5.57;;;;;;;15.88;86.84;100648.00;4986365;28;20056;-74
2022/06/08 06:07:54;;;;;;;7.90;5.53;;;;;;;15.94;87.18;100647.41;4987434;28;20042;-73
2022/06/08 06:10:30;;;;;;;7.18;5.43;;;;;;;16.04;86.83;100645.47;4999089;28;20021;-74
2022/06/08 06:12:56;;;;;;;7.75;5.82;;;;;;;16.07;86.51;100642.44;4991443;28;20551;-73
2022/06/08 06:15:29;;;;;;;;;;;;;;;16.19;86.22;100654.97;4980948;28;20100;-74
2022/06/08 06:17:55;;;;;;;6.97;5.13;;;;;;;16.18;86.16;100655.09;4991044;28;19924;-73
2022/06/08 06:20:20;;;;;;;6.18;4.85;;;;;;;16.23;86.01;100656.38;4973349;28;20057;-71
2022/06/08 06:22:53;;;;;;;7.35;5.28;;;;;;;16.29;85.49;100650.28;4989956;28;20548;-74
2022/06/08 06:25:47;;;;;;;7.22;5.05;;;;;;;16.31;85.99;100661.09;4975449;28;20097;-74
2022/06/08 06:28:42;;;;;;;7.95;5.47;;;;;;;16.28;85.24;100659.53;4971993;28;20058;-74
2022/06/08 06:31:47;;;;;;;10.18;4.90;;;;;;;16.31;85.30;100652.84;4945732;28;20120;-74
2022/06/08 06:34:19;;;;;;;7.80;5.22;;;;;;;16.32;86.11;100660.09;4975837;28;20073;-73
2022/06/08 06:36:46;;;;;;;7.72;5.35;;;;;;;16.30;85.16;100659.38;4976279;28;20454;-74
2022/06/08 06:39:13;;;;;;;7.50;5.40;;;;;;;16.25;84.38;100659.81;5007578;28;20505;-73
2022/06/08 06:41:43;;;;;;;8.15;5.40;;;;;;;16.20;85.37;100655.81;4990967;28;20025;-74
2022/06/08 06:44:09;;;;;;;5.55;4.90;;;;;;;16.19;83.68;100646.72;4989082;28;20040;-74
2022/06/08 06:46:41;;;;;;;8.70;5.25;;;;;;;16.24;84.87;100657.25;4988633;28;20449;-73
2022/06/08 06:49:10;;;;;;;8.50;5.55;;;;;;;16.36;85.28;100645.03;4986036;28;20072;-74
2022/06/08 06:51:35;;;;;;;8.25;6.32;;;;;;;16.57;85.06;100650.25;4987047;28;20087;-73
2022/06/08 06:54:04;;;;;;;10.98;6.13;;;;;;;16.83;84.63;100644.88;4986512;28;20038;-73
2022/06/08 06:56:29;;;;;;;7.90;6.18;;;;;;;17.05;86.88;100636.16;4988238;28;20075;-73
2022/06/08 06:59:02;;;;;;;10.30;6.38;;;;;;;17.24;84.15;100635.13;4988430;28;20077;-74
2022/06/08 07:01:29;;;;;;;7.03;5.78;;;;;;;17.48;83.24;100636.31;4975580;28;20026;-73
2022/06/08 07:03:55;;;;;;;9.43;5.38;;;;;;;17.64;82.96;100630.94;4970323;28;20026;-73
2022/06/08 07:06:21;;;;;;;9.18;5.80;;;;;;;17.73;81.23;100632.75;4970859;28;20034;-73
2022/06/08 07:08:46;;;;;;;5.95;4.50;;;;;;;17.83;80.87;100624.38;4994748;28;20033;-70
2022/06/08 07:14:02;;;;;;;7.38;4.47;;;;;;;17.87;79.66;100616.66;4985864;28;20060;-73
2022/06/08 07:16:28;;;;;;;6.82;4.50;;;;;;;17.90;79.83;100619.94;4982455;28;20045;-72
2022/06/08 07:18:53;;;;;;;5.78;4.15;;;;;;;17.97;79.67;100617.41;4980603;28;20038;-74
2022/06/08 07:21:19;;;;;;;9.90;4.47;;;;;;;18.02;78.53;100617.78;4971024;28;20079;-74
2022/06/08 07:23:45;;;;;;;9.45;3.80;;;;;;;17.95;77.68;100613.94;5008385;28;20488;-74
2022/06/08 07:26:11;;;;;;;5.65;3.90;;;;;;;18.13;79.34;100617.47;4978365;28;20037;-74
2022/06/08 07:28:38;;;;;;;13.30;4.63;;;;;;;18.05;76.25;100620.19;4988181;28;20050;-73
2022/06/08 07:31:03;;;;;;;12.70;3.95;;;;;;;18.03;77.79;100617.59;4987602;28;20034;-74
2022/06/08 07:33:28;;;;;;;6.35;3.70;;;;;;;18.06;79.67;100616.41;4998242;28;20045;-74
2022/06/08 07:35:54;;;;;;;7.95;3.50;;;;;;;18.21;78.28;100613.88;4983740;28;20474;-74
2022/06/08 07:38:21;;;;;;;6.40;3.75;;;;;;;18.28;79.24;100596.53;5007155;28;20029;-73
2022/06/08 07:40:47;;;;;;;7.50;3.58;;;;;;;18.35;80.45;100600.34;4973173;28;20100;-75
2022/06/08 07:43:12;;;;;;;5.13;3.40;;;;;;;18.44;78.58;100603.97;4992031;28;20038;-74
2022/06/08 07:45:37;;;;;;;8.40;3.20;;;;;;;18.65;78.74;100599.88;4971615;28;20128;-74
2022/06/08 07:50:47;;;;;;;7.85;2.92;;;;;;;18.74;75.30;100607.16;4987489;28;20152;-73
2022/06/08 07:53:13;;;;;;;7.13;2.95;;;;;;;18.67;74.90;100603.34;4981971;28;20542;-73
2022/06/08 07:55:38;;;;;;;6.35;3.10;;;;;;;18.75;75.77;100609.78;5007622;28;20528;-74
2022/06/08 07:58:03;;;;;;;9.52;3.35;;;;;;;18.91;76.94;100608.06;4983306;28;20117;-72
2022/06/08 08:00:29;;;;;;;7.78;3.08;;;;;;;19.02;75.63;100605.81;4989225;28;20076;-74
2022/06/08 08:02:55;;;;;;;6.18;3.30;;;;;;;19.19;76.11;100616.84;5006462;28;20072;-73
2022/06/08 08:05:22;;;;;;;8.30;3.33;;;;;;;19.37;75.03;100606.50;4997863;28;20084;-73
2022/06/08 08:07:48;;;;;;;9.88;3.97;;;;;;;19.39;74.20;100620.97;4987857;28;20025;-72
2022/06/08 08:10:21;;;;;;;7.55;3.30;;;;;;;19.34;74.04;100615.97;4990058;28;20045;-73
2022/06/08 08:12:48;;;;;;;6.38;3.35;;;;;;;19.37;74.37;100615.63;5008243;28;20037;-71
2022/06/08 08:15:14;;;;;;;5.18;3.33;;;;;;;19.47;74.04;100614.59;5004078;28;20133;-73
2022/06/08 08:17:41;;;;;;;9.85;3.50;;;;;;;19.38;72.48;100602.69;4987442;28;20030;-74
2022/06/08 08:20:09;;;;;;;6.40;3.33;;;;;;;19.40;73.21;100605.28;4980506;28;20049;-74
2022/06/08 08:22:34;;;;;;;10.63;3.28;;;;;;;19.38;72.22;100602.69;4988943;28;20038;-74
2022/06/08 08:25:00;;;;;;;9.88;2.80;;;;;;;19.32;71.88;100606.16;4987272;28;20405;-73
2022/06/08 08:27:25;;;;;;;7.93;2.92;;;;;;;19.22;72.23;100611.84;4968160;28;20449;-74
2022/06/08 08:29:51;;;;;;;7.13;3.17;;;;;;;19.27;72.65;100614.97;4968554;28;20464;-73
2022/06/08 08:32:16;;;;;;;5.00;3.00;;;;;;;19.25;73.01;100617.00;4987276;28;20038;-75
2022/06/08 08:34:42;;;;;;;8.55;3.38;;;;;;;19.14;73.04;100605.47;4992992;28;20109;-75
2022/06/08 08:37:07;;;;;;;8.13;3.35;;;;;;;19.18;73.74;100602.19;4994916;28;20022;-76
2022/06/08 08:39:34;;;;;;;5.32;2.80;;;;;;;19.23;73.63;100607.19;5006589;28;20030;-76
2022/06/08 08:44:47;;;;;;;5.60;3.03;;;;;;;19.31;73.86;100608.06;5002168;28;20053;-75
2022/06/08 08:47:34;;;;;;;8.02;3.30;;;;;;;19.20;73.70;100604.78;5003121;28;20042;-76
2022/06/08 08:50:13;;;;;;;5.68;3.40;;;;;;;19.00;72.56;100609.78;4991746;28;20465;-76
2022/06/08 08:53:00;;;;;;;9.20;3.20;;;;;;;18.90;72.89;100604.44;4987065;28;20401;-75
2022/06/08 08:55:44;;;;;;;7.80;3.47;;;;;;;18.83;74.58;100604.25;4987568;28;20046;-76
2022/06/08 08:58:14;;;;;;;8.57;3.60;;;;;;;18.76;74.94;100608.72;4986988;28;20050;-76
2022/06/08 09:00:39;;;;;;;6.05;3.00;;;;;;;18.92;74.52;100610.63;4986356;28;20046;-76
2022/06/08 09:03:43;;;;;;;7.03;3.85;;;;;;;18.95;74.58;100613.06;4975159;28;20493;-74
2022/06/08 09:06:14;;;;;;;8.60;3.20;;;;;;;18.90;73.56;100611.84;4993602;28;20030;-75
2022/06/08 09:08:45;;;;;;;8.25;3.28;;;;;;;18.79;72.98;100619.44;4976221;28;20042;-76
2022/06/08 09:11:24;;;;;;;13.32;3.38;;;;;;;18.78;73.91;100614.91;4976216;28;20034;-75
2022/06/08 09:13:52;;;;;;;9.27;3.30;;;;;;;18.80;74.95;100612.00;4993506;28;20506;-74
2022/06/08 09:16:37;;;;;;;9.00;3.03;;;;;;;18.76;74.06;100617.00;4993183;28;20084;-75
2022/06/08 09:19:22;;;;;;;8.02;2.83;;;;;;;18.74;74.92;100608.03;4974912;28;20042;-75
2022/06/08 09:21:50;;;;;;;6.78;2.97;;;;;;;18.66;74.01;100610.75;4993388;28;20417;-74
2022/06/08 09:24:30;;;;;;;8.85;3.22;;;;;;;18.67;74.37;100620.75;4993986;28;20042;-75
2022/06/08 09:27:05;;;;;;;7.43;3.22;;;;;;;18.54;74.05;100614.84;4993451;28;20894;-75
2022/06/08 09:29:31;;;;;;;6.78;3.22;;;;;;;18.44;74.53;100605.88;5001766;28;20075;-75
2022/06/08 09:31:57;;;;;;;9.00;3.65;;;;;;;18.36;74.77;100607.56;4991368;28;20038;-75
2022/06/08 09:34:29;;;;;;;7.50;3.33;;;;;;;18.25;75.28;100607.03;5003714;28;20033;-75
2022/06/08 09:37:24;;;;;;;12.30;3.42;;;;;;;18.22;75.53;100615.59;4993226;28;20034;-74
2022/06/08 09:39:52;;;;;;;10.18;2.80;;;;;;;18.14;75.64;100612.81;4978440;28;20493;-75
2022/06/08 09:42:35;;;;;;;5.80;2.95;;;;;;;18.15;76.23;100606.31;5009260;28;20469;-74
2022/06/08 09:45:25;;;;;;;8.40;3.15;;;;;;;18.18;76.00;100617.81;5009622;28;20393;-76
2022/06/08 09:51:25;;;;;;;11.93;3.97;;;;;;;18.13;77.38;100609.19;5005792;28;20153;-74
2022/06/08 09:54:12;;;;;;;10.60;3.75;;;;;;;18.17;77.39;100618.84;4979895;28;20050;-75
2022/06/08 09:57:11;;;;;;;10.75;3.35;;;;;;;18.19;79.26;100619.56;5012916;28;20406;-74
2022/06/08 09:59:54;;;;;;;9.25;3.97;;;;;;;18.16;77.43;100617.13;5007366;28;20073;-76
2022/06/08 10:02:54;;;;;;;8.13;3.13;;;;;;;18.10;78.35;100618.66;5009110;28;20026;-75
2022/06/08 10:05:42;;;;;;;6.43;3.53;;;;;;;17.99;78.16;100629.09;4961912;28;20517;-72
2022/06/08 10:08:17;;;;;;;6.32;3.00;;;;;;;18.01;78.13;100616.91;4993683;28;20041;-76
2022/06/08 10:11:03;;;;;;;7.43;3.25;;;;;;;17.99;78.61;100623.59;5010704;28;20038;-73
2022/06/08 10:13:39;;;;;;;10.20;3.15;;;;;;;17.75;78.39;100621.56;4991151;28;20776;-76
2022/06/08 10:16:13;;;;;;;10.85;3.10;;;;;;;17.67;77.95;100619.59;5008813;28;20117;-75
2022/06/08 10:18:44;;;;;;;7.00;3.15;;;;;;;17.63;79.31;100622.88;4994125;28;20493;-74
2022/06/08 10:21:16;;;;;;;4.68;2.60;;;;;;;17.58;79.21;100621.47;4975061;28;20175;-74
2022/06/08 10:24:00;;;;;;;8.18;3.05;;;;;;;17.45;79.01;100618.28;4992686;28;20399;-75
2022/06/08 10:26:50;;;;;;;7.00;3.63;;;;;;;17.47;79.64;100621.72;4990978;28;20042;-75
2022/06/08 10:29:42;;;;;;;14.93;3.38;;;;;;;17.47;79.85;100613.47;4989796;28;20050;-74
2022/06/08 10:32:29;;;;;;;10.07;3.05;;;;;;;17.41;80.07;100616.00;4971822;28;20041;-76
2022/06/08 10:34:55;;;;;;;6.45;2.85;;;;;;;17.24;80.14;100615.00;4978536;28;20060;-75
2022/06/08 10:37:27;;;;;;;8.55;2.88;;;;;;;17.23;80.36;100618.78;4989883;28;20034;-75
2022/06/08 10:39:53;;;;;;;5.35;2.85;;;;;;;17.11;81.03;100625.56;4987829;28;20041;-75
2022/06/08 10:42:40;;;;;;;6.47;3.53;;;;;;;17.02;82.31;100616.38;4972363;28;20375;-75
2022/06/08 10:45:23;;;;;;;8.60;3.60;;;;;;;16.93;81.23;100615.47;4973856;28;20148;-75
2022/06/08 10:48:01;;;;;;;7.32;3.00;;;;;;;16.89;82.70;100611.28;5001173;28;20038;-75
2022/06/08 10:50:32;;;;;;;8.48;3.55;;;;;;;16.89;83.57;100615.94;4991474;28;20128;-75
2022/06/08 10:56:23;;;;;;;11.77;4.10;;;;;;;17.01;81.63;100611.91;4989577;28;20370;-76
2022/06/08 10:59:03;;;;;;;7.35;4.10;;;;;;;16.95;81.91;100615.28;4985801;28;20082;-73
2022/06/08 11:01:47;;;;;;;10.20;3.88;;;;;;;16.90;84.07;100607.53;4989125;28;20117;-76
2022/06/08 11:04:34;;;;;;;8.77;3.92;;;;;;;16.93;83.54;100606.34;4995230;28;20125;-74
2022/06/08 11:07:14;;;;;;;12.02;4.90;;;;;;;16.94;82.86;100605.31;4989152;28;20472;-73
2022/06/08 11:09:43;;;;;;;9.07;3.95;;;;;;;16.94;83.03;100608.06;4971954;28;20030;-75
2022/06/08 11:12:13;;;;;;;8.88;3.25;;;;;;;17.06;82.88;100591.16;4972124;28;20053;-76
2022/06/08 11:14:47;;;;;;;10.40;3.55;;;;;;;17.17;82.53;100601.06;4988597;28;20069;-75
2022/06/08 11:17:32;;;;;;;8.15;2.83;;;;;;;17.21;80.65;100596.97;4955358;28;21704;-76
2022/06/08 11:20:09;;;;;;;10.30;3.30;;;;;;;17.14;80.88;100590.38;4970572;28;20081;-74
2022/06/08 11:22:42;;;;;;;13.45;3.55;;;;;;;17.22;80.57;100584.94;4989047;28;20149;-76
2022/06/08 11:25:16;;;;;;;7.40;3.28;;;;;;;17.22;80.62;100581.31;4967037;28;20050;-76
2022/06/08 11:27:43;;;;;;;8.75;3.28;;;;;;;17.19;81.30;100585.25;4956035;28;20501;-76
2022/06/08 11:30:14;;;;;;;6.97;3.40;;;;;;;17.10;81.94;100577.97;4987202;28;20664;-76
2022/06/08 11:33:02;;;;;;;7.20;3.95;;;;;;;17.09;82.50;100568.84;4988872;28;20176;-76
2022/06/08 11:35:32;;;;;;;7.82;3.03;;;;;;;17.08;82.21;100567.13;4971592;28;20038;-76
2022/06/08 11:37:57;;;;;;;8.88;2.90;;;;;;;17.06;80.80;100573.81;4971262;28;20034;-76
2022/06/08 11:40:29;;;;;;;6.45;2.90;;;;;;;17.02;80.90;100573.28;4988727;28;20740;-75
2022/06/08 11:43:28;;;;;;;10.32;3.22;;;;;;;17.08;81.06;100560.78;4971422;28;20042;-75
2022/06/08 11:45:57;;;;;;;7.43;2.47;;;;;;;17.11;82.26;100559.56;4974643;28;20041;-75
2022/06/08 11:48:28;;;;;;;6.65;3.15;;;;;;;17.17;82.35;100554.31;4987871;28;20069;-75
2022/06/08 11:51:00;;;;;;;5.57;2.80;;;;;;;17.19;82.30;100549.50;4987772;28;20088;-75
2022/06/08 11:53:29;;;;;;;5.88;2.63;;;;;;;17.15;82.30;100548.09;4971094;28;20038;-75
2022/06/08 11:56:30;;;;;;;6.95;2.50;;;;;;;17.11;81.60;100548.56;4970599;28;20072;-75
2022/06/08 11:58:59;;;;;;;5.68;2.72;;;;;;;16.97;81.63;100548.16;4953889;28;20129;-76
2022/06/08 12:01:42;;;;;;;8.90;2.85;;;;;;;16.89;82.05;100547.22;4980696;28;20468;-76